RNR224 LOWK-LOWS
Flight info
| Callsign | RNR224 |
|---|---|
| Flight time | N/A |
| Altitude | 16000 |
| Route | INGID DCT ETROK |
| Aircraft | B738/M-SDE2E3FGHIRWXY/LB1 |
Departure
| Time | 2026-04-27 06:14 |
|---|---|
| Airport | Klagenfurt Airport (LOWK) |
Arrival
| Time | N/A |
|---|---|
| Airport | Salzburg Airport (LOWS) |
| Time | Latitude | Longitude | Altitude | Speed | Heading |
|---|---|---|---|---|---|
| 2026-04-27 05:51 | 46.64940 | 14.32669 | 1478 ft | 0 kts | 77° |
| 2026-04-27 06:05 | 46.64939 | 14.32661 | 1478 ft | 2 kts | 77° |
| 2026-04-27 06:05 | 46.64935 | 14.32638 | 1478 ft | 2 kts | 77° |
| 2026-04-27 06:05 | 46.64933 | 14.32623 | 1478 ft | 2 kts | 77° |
| 2026-04-27 06:05 | 46.64929 | 14.32601 | 1478 ft | 2 kts | 77° |
| 2026-04-27 06:06 | 46.64924 | 14.32570 | 1478 ft | 2 kts | 77° |
| 2026-04-27 06:06 | 46.64920 | 14.32548 | 1478 ft | 2 kts | 77° |
| 2026-04-27 06:06 | 46.64917 | 14.32525 | 1478 ft | 2 kts | 77° |
| 2026-04-27 06:06 | 46.64914 | 14.32510 | 1478 ft | 2 kts | 77° |
| 2026-04-27 06:07 | 46.64911 | 14.32487 | 1478 ft | 2 kts | 77° |
| 2026-04-27 06:07 | 46.64907 | 14.32465 | 1478 ft | 2 kts | 77° |
| 2026-04-27 06:07 | 46.64907 | 14.32444 | 1478 ft | 2 kts | 118° |
| 2026-04-27 06:07 | 46.64917 | 14.32431 | 1478 ft | 2 kts | 165° |
| 2026-04-27 06:08 | 46.64933 | 14.32426 | 1478 ft | 2 kts | 165° |
| 2026-04-27 06:08 | 46.64948 | 14.32420 | 1478 ft | 1 kts | 165° |
| 2026-04-27 06:10 | 46.64944 | 14.32421 | 1478 ft | 3 kts | 165° |
| 2026-04-27 06:10 | 46.64923 | 14.32429 | 1478 ft | 1 kts | 165° |
| 2026-04-27 06:11 | 46.64908 | 14.32435 | 1478 ft | 4 kts | 165° |
| 2026-04-27 06:11 | 46.64860 | 14.32453 | 1478 ft | 11 kts | 165° |
| 2026-04-27 06:11 | 46.64764 | 14.32467 | 1478 ft | 16 kts | 180° |
| 2026-04-27 06:11 | 46.64643 | 14.32437 | 1478 ft | 19 kts | 195° |
| 2026-04-27 06:12 | 46.64546 | 14.32336 | 1478 ft | 18 kts | 284° |
| 2026-04-27 06:12 | 46.64602 | 14.32178 | 1478 ft | 16 kts | 304° |
| 2026-04-27 06:12 | 46.64587 | 14.32089 | 1478 ft | 8 kts | 154° |
| 2026-04-27 06:12 | 46.64572 | 14.32181 | 1478 ft | 5 kts | 101° |
| 2026-04-27 06:13 | 46.64569 | 14.32198 | 1478 ft | 8 kts | 106° |
| 2026-04-27 06:13 | 46.64510 | 14.32483 | 1478 ft | 60 kts | 106° |
| 2026-04-27 06:13 | 46.64335 | 14.33360 | 1478 ft | 120 kts | 106° |
| 2026-04-27 06:13 | 46.64055 | 14.34748 | 1657 ft | 154 kts | 106° |
| 2026-04-27 06:14 | 46.63748 | 14.36280 | 2259 ft | 161 kts | 106° |
| 2026-04-27 06:14 | 46.63432 | 14.37854 | 2966 ft | 163 kts | 106° |
| 2026-04-27 06:14 | 46.63098 | 14.39500 | 3525 ft | 180 kts | 106° |
| 2026-04-27 06:14 | 46.62715 | 14.41390 | 3880 ft | 208 kts | 106° |
| 2026-04-27 06:15 | 46.62280 | 14.43536 | 4214 ft | 234 kts | 106° |
| 2026-04-27 06:15 | 46.62132 | 14.45966 | 4641 ft | 258 kts | 82° |
| 2026-04-27 06:15 | 46.62793 | 14.48423 | 5378 ft | 264 kts | 54° |
| 2026-04-27 06:15 | 46.64136 | 14.50153 | 6582 ft | 257 kts | 32° |
| 2026-04-27 06:16 | 46.65864 | 14.50915 | 7443 ft | 269 kts | 8° |
| 2026-04-27 06:16 | 46.67745 | 14.50521 | 8400 ft | 277 kts | 344° |
| 2026-04-27 06:16 | 46.69422 | 14.49078 | 9359 ft | 283 kts | 325° |
| 2026-04-27 06:16 | 46.70819 | 14.47034 | 10275 ft | 287 kts | 317° |
| 2026-04-27 06:17 | 46.72234 | 14.44887 | 10763 ft | 305 kts | 317° |
| 2026-04-27 06:17 | 46.73747 | 14.42562 | 11099 ft | 326 kts | 317° |
| 2026-04-27 06:17 | 46.75321 | 14.40133 | 11841 ft | 330 kts | 316° |
| 2026-04-27 06:17 | 46.76889 | 14.37707 | 12856 ft | 327 kts | 316° |
| 2026-04-27 06:18 | 46.78437 | 14.35308 | 13946 ft | 322 kts | 315° |
| 2026-04-27 06:18 | 46.79935 | 14.32985 | 14955 ft | 320 kts | 315° |
| 2026-04-27 06:18 | 46.81461 | 14.30619 | 15570 ft | 320 kts | 314° |
| 2026-04-27 06:18 | 46.82990 | 14.28249 | 15888 ft | 319 kts | 314° |
| 2026-04-27 06:19 | 46.84575 | 14.25967 | 15997 ft | 318 kts | 317° |
| 2026-04-27 06:19 | 46.86199 | 14.23779 | 16000 ft | 316 kts | 318° |
| 2026-04-27 06:19 | 46.87817 | 14.21629 | 16000 ft | 313 kts | 318° |
| 2026-04-27 06:19 | 46.89428 | 14.19477 | 16000 ft | 313 kts | 317° |
| 2026-04-27 06:20 | 46.91033 | 14.17325 | 16000 ft | 314 kts | 317° |
| 2026-04-27 06:20 | 46.92641 | 14.15163 | 16000 ft | 314 kts | 317° |
| 2026-04-27 06:20 | 46.94245 | 14.12997 | 16000 ft | 313 kts | 317° |
| 2026-04-27 06:20 | 46.95848 | 14.10830 | 16000 ft | 313 kts | 317° |
| 2026-04-27 06:21 | 46.97449 | 14.08661 | 16000 ft | 313 kts | 317° |
| 2026-04-27 06:21 | 46.99049 | 14.06489 | 16000 ft | 313 kts | 317° |
| 2026-04-27 06:21 | 47.00646 | 14.04319 | 16000 ft | 313 kts | 317° |
| 2026-04-27 06:21 | 47.02246 | 14.02142 | 16000 ft | 313 kts | 317° |
| 2026-04-27 06:22 | 47.03828 | 14.00007 | 16000 ft | 313 kts | 318° |
| 2026-04-27 06:22 | 47.05438 | 13.97853 | 16000 ft | 313 kts | 317° |
| 2026-04-27 06:22 | 47.07045 | 13.95688 | 16000 ft | 313 kts | 317° |
| 2026-04-27 06:22 | 47.08650 | 13.93515 | 16000 ft | 313 kts | 317° |
| 2026-04-27 06:23 | 47.10247 | 13.91343 | 16000 ft | 313 kts | 317° |
| 2026-04-27 06:23 | 47.11843 | 13.89165 | 16000 ft | 313 kts | 317° |
| 2026-04-27 06:23 | 47.13437 | 13.86984 | 16000 ft | 313 kts | 317° |
| 2026-04-27 06:23 | 47.15035 | 13.84794 | 16000 ft | 313 kts | 317° |
| 2026-04-27 06:24 | 47.16622 | 13.82615 | 16000 ft | 313 kts | 317° |
| 2026-04-27 06:24 | 47.18205 | 13.80438 | 16000 ft | 313 kts | 317° |
| 2026-04-27 06:24 | 47.19807 | 13.78234 | 16000 ft | 313 kts | 317° |
| 2026-04-27 06:24 | 47.21399 | 13.76041 | 16000 ft | 313 kts | 317° |
| 2026-04-27 06:25 | 47.22964 | 13.73884 | 16000 ft | 312 kts | 317° |
| 2026-04-27 06:25 | 47.24530 | 13.71729 | 15999 ft | 306 kts | 317° |
| 2026-04-27 06:25 | 47.26070 | 13.69604 | 15999 ft | 302 kts | 317° |
| 2026-04-27 06:25 | 47.27633 | 13.67541 | 15999 ft | 298 kts | 320° |
| 2026-04-27 06:26 | 47.29254 | 13.65668 | 15966 ft | 299 kts | 323° |
| 2026-04-27 06:26 | 47.30927 | 13.63857 | 15767 ft | 295 kts | 324° |
| 2026-04-27 06:26 | 47.32581 | 13.62074 | 15545 ft | 292 kts | 324° |
| 2026-04-27 06:26 | 47.34208 | 13.60303 | 15271 ft | 289 kts | 324° |
| 2026-04-27 06:27 | 47.35810 | 13.58544 | 14994 ft | 286 kts | 324° |
| 2026-04-27 06:27 | 47.37397 | 13.56792 | 14715 ft | 283 kts | 324° |
| 2026-04-27 06:27 | 47.38968 | 13.55050 | 14435 ft | 281 kts | 324° |
| 2026-04-27 06:27 | 47.40523 | 13.53318 | 14157 ft | 279 kts | 324° |
| 2026-04-27 06:28 | 47.42048 | 13.51616 | 13883 ft | 277 kts | 324° |
| 2026-04-27 06:28 | 47.43575 | 13.49906 | 13608 ft | 275 kts | 325° |
| 2026-04-27 06:28 | 47.45095 | 13.48203 | 13333 ft | 274 kts | 325° |
| 2026-04-27 06:28 | 47.46607 | 13.46505 | 13060 ft | 272 kts | 325° |
| 2026-04-27 06:29 | 47.48123 | 13.44801 | 12788 ft | 276 kts | 326° |
| 2026-04-27 06:29 | 47.49672 | 13.43060 | 12511 ft | 283 kts | 326° |
| 2026-04-27 06:29 | 47.51257 | 13.41279 | 12227 ft | 287 kts | 326° |
| 2026-04-27 06:29 | 47.52854 | 13.39482 | 11941 ft | 290 kts | 326° |
| 2026-04-27 06:30 | 47.54498 | 13.37726 | 11650 ft | 290 kts | 330° |
| 2026-04-27 06:30 | 47.56221 | 13.36195 | 11364 ft | 287 kts | 333° |
| 2026-04-27 06:30 | 47.57956 | 13.34751 | 11080 ft | 286 kts | 334° |
| 2026-04-27 06:30 | 47.59702 | 13.33323 | 10797 ft | 287 kts | 334° |
| 2026-04-27 06:31 | 47.61451 | 13.31886 | 10530 ft | 286 kts | 334° |
| 2026-04-27 06:31 | 47.63161 | 13.30474 | 10347 ft | 284 kts | 334° |
| 2026-04-27 06:31 | 47.64867 | 13.29060 | 10194 ft | 277 kts | 335° |
| 2026-04-27 06:31 | 47.66535 | 13.27673 | 10034 ft | 273 kts | 335° |
| 2026-04-27 06:32 | 47.68185 | 13.26299 | 9793 ft | 271 kts | 335° |
| 2026-04-27 06:32 | 47.69823 | 13.24936 | 9547 ft | 270 kts | 335° |
| 2026-04-27 06:32 | 47.71474 | 13.23576 | 9290 ft | 270 kts | 335° |
| 2026-04-27 06:32 | 47.73121 | 13.22212 | 9027 ft | 271 kts | 335° |
| 2026-04-27 06:33 | 47.74763 | 13.20846 | 8762 ft | 271 kts | 335° |
| 2026-04-27 06:33 | 47.76410 | 13.19470 | 8492 ft | 271 kts | 335° |
| 2026-04-27 06:33 | 47.78059 | 13.18090 | 8222 ft | 272 kts | 335° |
| 2026-04-27 06:33 | 47.79704 | 13.16708 | 7951 ft | 272 kts | 335° |
| 2026-04-27 06:34 | 47.81343 | 13.15329 | 7684 ft | 272 kts | 335° |
| 2026-04-27 06:34 | 47.82976 | 13.13953 | 7420 ft | 272 kts | 334° |
| 2026-04-27 06:34 | 47.84626 | 13.12561 | 7156 ft | 272 kts | 334° |
| 2026-04-27 06:34 | 47.86061 | 13.11349 | 6927 ft | 272 kts | 334° |
| 2026-04-27 06:35 | 47.87674 | 13.09985 | 6810 ft | 259 kts | 334° |
| 2026-04-27 06:35 | 47.89192 | 13.08700 | 6699 ft | 244 kts | 335° |
| 2026-04-27 06:35 | 47.90647 | 13.07468 | 6612 ft | 233 kts | 335° |
| 2026-04-27 06:35 | 47.92021 | 13.06304 | 6529 ft | 222 kts | 335° |
| 2026-04-27 06:36 | 47.93331 | 13.05195 | 6450 ft | 211 kts | 335° |
| 2026-04-27 06:36 | 47.94565 | 13.04150 | 6280 ft | 204 kts | 335° |
| 2026-04-27 06:36 | 47.95806 | 13.03097 | 6043 ft | 200 kts | 334° |
| 2026-04-27 06:36 | 47.96804 | 13.01693 | 5738 ft | 208 kts | 300° |
| 2026-04-27 06:37 | 47.96927 | 12.99563 | 5592 ft | 207 kts | 254° |
| 2026-04-27 06:37 | 47.96051 | 12.97936 | 5581 ft | 204 kts | 209° |
| 2026-04-27 06:37 | 47.94689 | 12.97641 | 5554 ft | 201 kts | 165° |
| 2026-04-27 06:37 | 47.93526 | 12.98677 | 5509 ft | 199 kts | 135° |
| 2026-04-27 06:38 | 47.92496 | 13.00083 | 5421 ft | 203 kts | 137° |
| 2026-04-27 06:38 | 47.91371 | 13.01369 | 5306 ft | 204 kts | 144° |
| 2026-04-27 06:38 | 47.90199 | 13.02444 | 5207 ft | 191 kts | 148° |
| 2026-04-27 06:38 | 47.89061 | 13.03387 | 5103 ft | 184 kts | 150° |
| 2026-04-27 06:39 | 47.87944 | 13.04269 | 4936 ft | 181 kts | 154° |
| 2026-04-27 06:39 | 47.86767 | 13.04851 | 4776 ft | 177 kts | 166° |
| 2026-04-27 06:39 | 47.85567 | 13.05201 | 4555 ft | 174 kts | 170° |
| 2026-04-27 06:39 | 47.84376 | 13.05525 | 4327 ft | 172 kts | 169° |
| 2026-04-27 06:40 | 47.83228 | 13.05853 | 4111 ft | 166 kts | 169° |
| 2026-04-27 06:40 | 47.82103 | 13.06182 | 3880 ft | 163 kts | 169° |
| 2026-04-27 06:40 | 47.81004 | 13.06509 | 3673 ft | 159 kts | 168° |
| 2026-04-27 06:40 | 47.79940 | 13.06825 | 3472 ft | 153 kts | 168° |
| 2026-04-27 06:41 | 47.78935 | 13.07125 | 3298 ft | 145 kts | 168° |
| 2026-04-27 06:41 | 47.77952 | 13.07414 | 3076 ft | 143 kts | 169° |
| 2026-04-27 06:41 | 47.76961 | 13.07478 | 2869 ft | 143 kts | 184° |
| 2026-04-27 06:41 | 47.75993 | 13.07172 | 2665 ft | 143 kts | 200° |
| 2026-04-27 06:42 | 47.75234 | 13.06244 | 2470 ft | 142 kts | 233° |
| 2026-04-27 06:42 | 47.74867 | 13.04892 | 2330 ft | 142 kts | 254° |
| 2026-04-27 06:42 | 47.74736 | 13.03452 | 2170 ft | 143 kts | 281° |
| 2026-04-27 06:42 | 47.75412 | 13.02481 | 2073 ft | 142 kts | 343° |
| 2026-04-27 06:43 | 47.76391 | 13.02341 | 2052 ft | 144 kts | 346° |
| 2026-04-27 06:43 | 47.77262 | 13.01658 | 1888 ft | 143 kts | 333° |
| 2026-04-27 06:43 | 47.78205 | 13.01102 | 1540 ft | 145 kts | 338° |
| 2026-04-27 06:43 | 47.78513 | 13.00916 | 1471 ft | 143 kts | 338° |